Port Alberni, British Columbia

11:29 PM PDT on October 25, 2014 (GMT -0700)
Redford | Change Station
CLOSE
Current Station
Personal Weather Station
Location: Port Alberni, BC
Elevation: 98 ft
Nearby Weather Stations

Elev 98 ft 49.25 °N, 124.80 °W | Updated 4 minutes ago

Light Rain
Light Rain
45.8 °F
Feels Like 46 °F
N
2.0
Wind Variable Wind from ENE
Gusts 5.0 mph

Today
High -- | Low -- °F
--% Chance of Precip.
Yesterday
High -- | Low -- °F
Precip. -- in
7:56 AM 6:10 PM
Waxing Crescent, 6% visible
Pressure 29.53 in
Visibility 15.0 miles
Clouds Scattered Clouds 4400 ft
Overcast 6000 ft
Windchill 46 °F
Dew Point 45 °F
Humidity 98%
Rainfall 1.09 in
Snow Depth Not available.
UV 0.0 out of 12
Pollen Not available.
Air Quality Not available.
Flu Activity Not available.
METAR CYQQ 260600Z 30003KT 15SM -RA SCT044 OVC060 07/06 A2952 RMK SC3SC5 PCPN VRY LGT SLP999

More Conditions Fewer Conditions

Pressure 29.53 in
Visibility 15.0 miles
Clouds Scattered Clouds 4400 ft
Overcast 6000 ft
Windchill 46 °F
Dew Point 45 °F
Humidity 98%
Rainfall 1.09 in
Snow Depth Not available.
UV 0.0 out of 12
Pollen Not available.
Air Quality Not available.
Flu Activity Not available.
METAR CYQQ 260600Z 30003KT 15SM -RA SCT044 OVC060 07/06 A2952 RMK SC3SC5 PCPN VRY LGT SLP999

More Conditions Fewer Conditions

10-Day Weather Forecast

Almanac

Astronomy

Oct. 25, 2014 Rise Set
Actual Time 7:56 AM PDT 6:10 PM PDT
Civil Twilight 7:23 AM PDT 6:42 PM PDT
Nautical Twilight 6:46 AM PDT 7:20 PM PDT
Astronomical Twilight 6:09 AM PDT 7:56 PM PDT
Moon 9:48 AM PDT (10/25) 7:29 PM PDT (10/25)
Length of Visible Light 11h 19m
Length of Day
10h 13m
Tomorrow will be 3m 24s shorter.
Waxing Crescent, 6% of the Moon is Illuminated
Oct 26
Waxing Crescent
Oct 30
First Quarter
Nov 6
Full
Nov 14
Last Quarter
Nov 22
New

Today's Extremes

Country Highs Country Lows

Community

WunderPhotos

Upload Photos

1,765,114 photos uploaded!

Nearby

Snow Depth

Not available.

Earthquake Activity

City Distance Mag. Time & Date
No recent earthquake activity has been reported nearby.
Minimum magnitude displayed is 2.5.

Coastal Water Temperatures

Place Temperature
No Stations Reporting

Nearby Weather Stations